Time;durP1;ratioP1;P1;durP2;ratioP2;P2;SDS_P1;SDS_P2;PMS_P1;PMS_P2;Temp;Humidity;BMP_temperature;BMP_pressure;BME280_temperature;BME280_humidity;BME280_pressure;Samples;Min_cycle;Max_cycle;Signal;HPM_P1;HPM_P2
2020/12/09 00:00:57;;;;;;;;;;;;;;;20.70;36.78;100337.28;3135433;27;115397;-55
2020/12/09 00:02:28;;;;;;;;;;;;;;;20.70;37.09;100326.03;3134251;27;114206;-55
2020/12/09 00:04:00;;;;;;;;;;;;;;;20.68;36.74;100329.16;3132088;27;115370;-55
2020/12/09 00:05:32;;;;;;;;;;;;;;;20.68;37.02;100326.38;3127732;27;114575;-55
2020/12/09 00:07:04;;;;;;;;;;;;;;;20.66;36.79;100328.69;3132625;27;114039;-55
2020/12/09 00:08:36;;;;;;;;;;;;;;;20.66;36.88;100323.06;3133462;27;116006;-56
2020/12/09 00:10:07;;;;;;;;;;;;;;;20.66;37.02;100333.47;3130648;27;117918;-55
2020/12/09 00:11:39;;;;;;;;;;;;;;;20.64;37.16;100325.34;3124096;27;114573;-55
2020/12/09 00:13:10;;;;;;;;;;;;;;;20.64;37.17;100328.16;3128146;27;114290;-56
2020/12/09 00:14:42;;;;;;;;;;;;;;;20.63;37.44;100323.69;3120642;27;115125;-56
2020/12/09 00:16:13;;;;;;;;;;;;;;;20.65;37.38;100310.19;3128912;27;120137;-56
2020/12/09 00:17:44;;;;;;;;;;;;;;;20.66;37.70;100316.63;3133686;27;115961;-57
2020/12/09 00:19:15;;;;;;;;;;;;;;;20.65;37.62;100315.78;3116934;27;114863;-56
2020/12/09 00:20:47;;;;;;;;;;;;;;;20.66;37.67;100314.66;3128656;27;114320;-54
2020/12/09 00:22:18;;;;;;;;;;;;;;;20.63;37.62;100309.66;3134290;27;115726;-54
2020/12/09 00:23:50;;;;;;;;;;;;;;;20.63;37.55;100320.06;3130567;27;114742;-54
2020/12/09 00:25:21;;;;;;;;;;;;;;;20.60;37.42;100327.16;3128415;27;115218;-54
2020/12/09 00:26:52;;;;;;;;;;;;;;;20.60;37.37;100323.53;3134258;27;115791;-54
2020/12/09 00:28:25;;;;;;;;;;;;;;;20.58;37.63;100325.84;3136370;27;114663;-55
2020/12/09 00:29:56;;;;;;;;;;;;;;;20.56;37.65;100316.91;3134043;27;114024;-55
2020/12/09 00:31:28;;;;;;;;;;;;;;;20.54;37.54;100324.81;3135271;27;113952;-54
2020/12/09 00:32:59;;;;;;;;;;;;;;;20.52;37.61;100313.94;3134158;27;114459;-54
2020/12/09 00:34:30;;;;;;;;;;;;;;;20.52;37.63;100315.91;3133374;27;114007;-54
2020/12/09 00:36:02;;;;;;;;;;;;;;;20.50;37.73;100310.59;3134837;27;114399;-54
2020/12/09 00:37:33;;;;;;;;;;;;;;;20.49;37.62;100322.19;3134135;27;113944;-55
2020/12/09 00:39:04;;;;;;;;;;;;;;;20.47;37.56;100316.88;3134709;27;114347;-54
2020/12/09 00:40:36;;;;;;;;;;;;;;;20.45;37.57;100319.16;3136187;27;114333;-55
2020/12/09 00:42:07;;;;;;;;;;;;;;;20.44;37.62;100314.72;3135747;27;113960;-55
2020/12/09 00:43:38;;;;;;;;;;;;;;;20.42;37.98;100312.22;3135233;27;114133;-55
2020/12/09 00:45:09;;;;;;;;;;;;;;;20.39;38.23;100315.69;3137439;27;114235;-55
2020/12/09 00:46:40;;;;;;;;;;;;;;;20.39;38.20;100312.88;3136963;27;113846;-55
2020/12/09 00:48:11;;;;;;;;;;;;;;;20.37;38.22;100314.34;3135513;27;114057;-55
2020/12/09 00:49:58;;;;;;;;;;;;;;;20.36;38.28;100312.69;3139892;27;113892;-55
2020/12/09 00:51:29;;;;;;;;;;;;;;;20.35;37.88;100313.84;3136753;27;114989;-55
2020/12/09 00:53:00;;;;;;;;;;;;;;;20.33;38.03;100308.56;3136571;27;115336;-60
2020/12/09 00:54:31;;;;;;;;;;;;;;;20.32;38.20;100306.91;3122133;27;115059;-55
2020/12/09 00:56:04;;;;;;;;;;;;;;;20.30;38.26;100314.00;3131163;27;114479;-55
2020/12/09 00:57:36;;;;;;;;;;;;;;;20.28;38.28;100314.28;3135842;27;114885;-55
2020/12/09 00:59:07;;;;;;;;;;;;;;;20.26;38.11;100302.53;3135135;27;115038;-55
2020/12/09 01:00:38;;;;;;;;;;;;;;;20.25;38.15;100305.69;3135750;27;114183;-55
2020/12/09 01:02:09;;;;;;;;;;;;;;;20.24;38.29;100307.66;3137445;27;115157;-56
2020/12/09 01:03:40;;;;;;;;;;;;;;;20.24;38.28;100306.81;3135016;27;114252;-55
2020/12/09 01:05:12;;;;;;;;;;;;;;;20.22;38.11;100303.50;3137003;27;114382;-55
2020/12/09 01:06:43;;;;;;;;;;;;;;;20.22;38.15;100311.91;3136052;27;114054;-55
2020/12/09 01:08:14;;;;;;;;;;;;;;;20.19;38.40;100301.34;3133924;27;114101;-56
2020/12/09 01:09:46;;;;;;;;;;;;;;;20.16;38.36;100302.00;3136361;27;115250;-56
2020/12/09 01:11:20;;;;;;;;;;;;;;;20.16;38.29;100307.59;3139309;27;115058;-55
2020/12/09 01:12:51;;;;;;;;;;;;;;;20.15;38.30;100306.78;3125758;27;115043;-55
2020/12/09 01:14:23;;;;;;;;;;;;;;;20.12;38.61;100303.78;3120667;27;114601;-56
2020/12/09 01:15:55;;;;;;;;;;;;;;;20.11;38.46;100314.19;3131648;27;116721;-55
2020/12/09 01:17:26;;;;;;;;;;;;;;;20.08;38.45;100302.78;3131810;27;115908;-56
2020/12/09 01:19:05;;;;;;;;;;;;;;;20.07;38.39;100303.94;3135076;27;116188;-56
2020/12/09 01:20:36;;;;;;;;;;;;;;;20.04;38.49;100305.38;3122463;27;117962;-54
2020/12/09 01:22:07;;;;;;;;;;;;;;;20.02;38.75;100310.50;3131603;27;115908;-54
2020/12/09 01:23:38;;;;;;;;;;;;;;;20.01;38.66;100305.19;3134254;27;114860;-56
2020/12/09 01:25:10;;;;;;;;;;;;;;;20.02;38.67;100306.88;3135211;27;114611;-56
2020/12/09 01:26:42;;;;;;;;;;;;;;;19.99;38.90;100305.50;3134714;27;114661;-55
2020/12/09 01:28:13;;;;;;;;;;;;;;;19.97;38.62;100308.66;3134647;27;114774;-55
2020/12/09 01:29:44;;;;;;;;;;;;;;;19.97;38.90;100305.03;3135740;27;114680;-56
2020/12/09 01:31:22;;;;;;;;;;;;;;;19.94;38.77;100306.47;3135899;27;115846;-55
2020/12/09 01:32:54;;;;;;;;;;;;;;;19.93;38.80;100313.25;3122343;27;115913;-55
2020/12/09 01:34:26;;;;;;;;;;;;;;;19.91;38.86;100309.94;3134146;27;119938;-55
2020/12/09 01:35:58;;;;;;;;;;;;;;;19.89;38.92;100309.44;3136097;27;114623;-55
2020/12/09 01:37:30;;;;;;;;;;;;;;;19.87;39.09;100310.88;3122135;27;114074;-55
2020/12/09 01:39:01;;;;;;;;;;;;;;;19.85;39.17;100308.41;3129784;27;114307;-55
2020/12/09 01:40:32;;;;;;;;;;;;;;;19.83;39.05;100305.09;3135604;27;114808;-55
2020/12/09 01:42:03;;;;;;;;;;;;;;;19.83;39.05;100313.50;3135838;27;113835;-55
2020/12/09 01:43:42;;;;;;;;;;;;;;;19.82;39.36;100317.44;3133242;27;114375;-55
2020/12/09 01:45:13;;;;;;;;;;;;;;;19.80;39.14;100308.56;3129642;27;114105;-55
2020/12/09 01:46:45;;;;;;;;;;;;;;;19.79;39.30;100312.50;3134380;27;117973;-55
2020/12/09 01:48:17;;;;;;;;;;;;;;;19.76;39.20;100315.13;3130566;27;113755;-55
2020/12/09 01:49:48;;;;;;;;;;;;;;;19.76;39.17;100303.91;3121576;27;113751;-55
2020/12/09 01:51:23;;;;;;;;;;;;;;;19.75;39.15;100319.06;3130009;27;114064;-55
2020/12/09 01:52:55;;;;;;;;;;;;;;;19.74;39.25;100308.97;3120978;27;113909;-55
2020/12/09 01:54:26;;;;;;;;;;;;;;;19.72;39.26;100317.69;3130131;27;113818;-55
2020/12/09 01:55:57;;;;;;;;;;;;;;;19.70;39.22;100317.22;3139237;27;114407;-55
2020/12/09 01:57:28;;;;;;;;;;;;;;;19.69;39.24;100318.34;3120488;27;114210;-55
2020/12/09 01:58:59;;;;;;;;;;;;;;;19.67;39.53;100317.81;3128982;27;115098;-55
2020/12/09 02:00:35;;;;;;;;;;;;;;;19.67;39.45;100315.03;3121227;27;114839;-55
2020/12/09 02:02:07;;;;;;;;;;;;;;;19.65;39.42;100319.31;3131850;27;115808;-55
2020/12/09 02:03:38;;;;;;;;;;;;;;;19.61;39.49;100319.13;3129538;27;114312;-55
2020/12/09 02:05:09;;;;;;;;;;;;;;;19.64;39.26;100323.25;3135214;27;114433;-55
2020/12/09 02:06:40;;;;;;;;;;;;;;;19.60;39.24;100320.25;3135320;27;115238;-55
2020/12/09 02:08:11;;;;;;;;;;;;;;;19.58;39.15;100321.72;3120534;27;114206;-55
2020/12/09 02:09:42;;;;;;;;;;;;;;;19.56;39.42;100322.03;3117774;27;115109;-55
2020/12/09 02:11:14;;;;;;;;;;;;;;;19.54;39.53;100319.53;3130558;27;116243;-55
2020/12/09 02:12:45;;;;;;;;;;;;;;;19.53;39.28;100317.06;3133659;27;115424;-56
2020/12/09 02:14:16;;;;;;;;;;;;;;;19.51;39.41;100324.97;3133118;27;114381;-54
2020/12/09 02:15:48;;;;;;;;;;;;;;;19.47;39.55;100319.16;3134752;27;114908;-54
2020/12/09 02:17:19;;;;;;;;;;;;;;;19.46;39.63;100327.88;3133839;27;115087;-54
2020/12/09 02:18:50;;;;;;;;;;;;;;;19.45;39.70;100324.25;3127741;27;116063;-54
2020/12/09 02:20:21;;;;;;;;;;;;;;;19.44;39.67;100327.38;3135286;27;115804;-53
2020/12/09 02:21:53;;;;;;;;;;;;;;;19.43;39.70;100322.88;3133658;27;116975;-53
2020/12/09 02:23:24;;;;;;;;;;;;;;;19.40;39.86;100331.91;3133942;27;114603;-53
2020/12/09 02:24:55;;;;;;;;;;;;;;;19.40;39.55;100334.69;3135116;27;115189;-53
2020/12/09 02:26:27;;;;;;;;;;;;;;;19.37;39.45;100330.56;3134114;27;114577;-53
2020/12/09 02:27:58;;;;;;;;;;;;;;;19.37;39.58;100330.56;3133115;27;115488;-54
2020/12/09 02:29:29;;;;;;;;;;;;;;;19.36;39.73;100330.88;3133655;27;114671;-53
2020/12/09 02:31:00;;;;;;;;;;;;;;;19.34;39.62;100336.81;3120904;27;114851;-54
2020/12/09 02:32:31;;;;;;;;;;;;;;;19.32;39.76;100332.66;3130148;27;115725;-54
2020/12/09 02:34:04;;;;;;;;;;;;;;;19.30;39.71;100327.38;3132708;27;115900;-54
2020/12/09 02:35:35;;;;;;;;;;;;;;;19.31;39.86;100331.00;3134919;27;115604;-55
2020/12/09 02:37:06;;;;;;;;;;;;;;;19.28;39.84;100338.06;3135336;27;114811;-55
2020/12/09 02:38:37;;;;;;;;;;;;;;;19.28;39.81;100331.63;3136973;27;114407;-55
2020/12/09 02:40:08;;;;;;;;;;;;;;;19.28;39.84;100337.22;3134999;27;114184;-55
2020/12/09 02:41:39;;;;;;;;;;;;;;;19.25;40.01;100329.47;3133516;27;114788;-55
2020/12/09 02:43:10;;;;;;;;;;;;;;;19.22;40.22;100330.06;3133869;27;114178;-55
2020/12/09 02:44:41;;;;;;;;;;;;;;;19.22;40.22;100327.28;3134492;27;114671;-55
2020/12/09 02:46:13;;;;;;;;;;;;;;;19.19;40.09;100322.31;3134438;27;114730;-55
2020/12/09 02:47:44;;;;;;;;;;;;;;;19.19;40.22;100327.91;3134459;27;113880;-54
2020/12/09 02:49:15;;;;;;;;;;;;;;;19.17;40.20;100330.22;3134228;27;114162;-56
2020/12/09 02:50:46;;;;;;;;;;;;;;;19.16;40.38;100335.00;3133143;27;114036;-55
2020/12/09 02:52:18;;;;;;;;;;;;;;;19.14;40.31;100328.03;3134362;27;113932;-60
2020/12/09 02:53:50;;;;;;;;;;;;;;;19.16;40.35;100328.56;3133808;27;114298;-60
2020/12/09 02:55:21;;;;;;;;;;;;;;;19.13;40.56;100329.16;3134856;27;114131;-60
2020/12/09 02:56:53;;;;;;;;;;;;;;;19.13;40.29;100324.41;3120354;27;114139;-60
2020/12/09 02:58:24;;;;;;;;;;;;;;;19.12;40.54;100331.16;3128271;27;113889;-60
2020/12/09 02:59:55;;;;;;;;;;;;;;;19.09;40.55;100329.81;3134066;27;114375;-60
2020/12/09 03:01:26;;;;;;;;;;;;;;;19.09;40.49;100335.41;3138239;27;114309;-60
2020/12/09 03:02:58;;;;;;;;;;;;;;;19.07;40.55;100334.91;3120215;27;115154;-60
2020/12/09 03:04:29;;;;;;;;;;;;;;;19.05;40.62;100334.38;3129676;27;115259;-60
2020/12/09 03:06:00;;;;;;;;;;;;;;;19.04;40.58;100329.91;3120082;27;117705;-60
2020/12/09 03:07:31;;;;;;;;;;;;;;;19.04;40.63;100335.50;3129717;27;115065;-59
2020/12/09 03:09:03;;;;;;;;;;;;;;;19.02;40.60;100329.41;3131290;27;114366;-61
2020/12/09 03:10:34;;;;;;;;;;;;;;;19.01;40.75;100324.94;3120884;27;115391;-60
2020/12/09 03:12:05;;;;;;;;;;;;;;;18.99;40.91;100330.03;3112919;27;114672;-60
2020/12/09 03:13:36;;;;;;;;;;;;;;;18.98;40.94;100322.78;3120262;27;116653;-60
2020/12/09 03:15:07;;;;;;;;;;;;;;;18.99;40.98;100326.38;3134718;27;115293;-60
2020/12/09 03:16:38;;;;;;;;;;;;;;;18.96;40.95;100325.06;3109680;27;115225;-60
2020/12/09 03:18:09;;;;;;;;;;;;;;;18.96;40.95;100325.06;3129856;27;115748;-60
2020/12/09 03:19:40;;;;;;;;;;;;;;;18.96;41.04;100327.84;3121207;27;115666;-60
2020/12/09 03:21:12;;;;;;;;;;;;;;;18.92;41.09;100338.03;3129693;27;114693;-60
2020/12/09 03:22:43;;;;;;;;;;;;;;;18.92;41.15;100332.44;3137809;27;115398;-59
2020/12/09 03:24:14;;;;;;;;;;;;;;;18.92;41.00;100334.38;3132672;27;114650;-60
2020/12/09 03:25:45;;;;;;;;;;;;;;;18.90;41.12;100340.28;3133947;27;115975;-60
2020/12/09 03:27:17;;;;;;;;;;;;;;;18.88;41.16;100337.00;3120524;27;114877;-59
2020/12/09 03:28:58;;;;;;;;;;;;;;;18.88;41.36;100336.16;3127609;27;114654;-59
2020/12/09 03:30:51;;;;;;;;;;;;;;;18.85;41.22;100334.00;3134280;27;114676;-59
2020/12/09 03:32:47;;;;;;;;;;;;;;;18.84;41.32;100333.16;3133664;27;114711;-60
2020/12/09 03:34:40;;;;;;;;;;;;;;;18.84;41.31;100349.13;3131558;27;115017;-59
2020/12/09 03:36:20;;;;;;;;;;;;;;;18.82;41.38;100341.03;3129992;27;114733;-60
2020/12/09 03:37:51;;;;;;;;;;;;;;;18.81;41.32;100333.78;3134516;27;116201;-60
2020/12/09 03:39:23;;;;;;;;;;;;;;;18.78;41.38;100339.16;3133148;27;116065;-59
2020/12/09 03:40:54;;;;;;;;;;;;;;;18.76;41.52;100345.06;3133786;27;116057;-60
2020/12/09 03:42:25;;;;;;;;;;;;;;;18.76;41.35;100347.06;3134206;27;116198;-59
2020/12/09 03:43:56;;;;;;;;;;;;;;;18.75;41.44;100345.41;3132452;27;115174;-59
2020/12/09 03:45:27;;;;;;;;;;;;;;;18.74;41.47;100344.56;3137314;27;116075;-59
2020/12/09 03:46:59;;;;;;;;;;;;;;;18.73;41.55;100353.25;3120750;27;114510;-59
2020/12/09 03:48:30;;;;;;;;;;;;;;;18.71;41.49;100345.19;3115548;27;114249;-60
2020/12/09 03:50:02;;;;;;;;;;;;;;;18.69;41.58;100344.66;3127091;27;114306;-58
2020/12/09 03:51:33;;;;;;;;;;;;;;;18.67;41.65;100344.97;3133414;27;114582;-59
2020/12/09 03:53:04;;;;;;;;;;;;;;;18.68;41.63;100345.78;3116085;27;114703;-59
2020/12/09 03:54:36;;;;;;;;;;;;;;;18.67;41.59;100344.13;3129060;27;114110;-59
2020/12/09 03:56:07;;;;;;;;;;;;;;;18.65;41.60;100338.03;3132915;27;114850;-58
2020/12/09 03:57:38;;;;;;;;;;;;;;;18.64;41.52;100333.56;3134943;27;114351;-59
2020/12/09 03:59:09;;;;;;;;;;;;;;;18.62;41.63;100339.47;3132572;27;114083;-60
2020/12/09 04:00:40;;;;;;;;;;;;;;;18.62;41.63;100342.25;3134666;27;114543;-59
2020/12/09 04:02:11;;;;;;;;;;;;;;;18.61;41.75;100342.59;3133957;27;114214;-59
2020/12/09 04:03:42;;;;;;;;;;;;;;;18.62;41.72;100338.66;3134425;27;114413;-60
2020/12/09 04:05:13;;;;;;;;;;;;;;;18.60;41.83;100336.16;3119008;27;114889;-59
2020/12/09 04:06:45;;;;;;;;;;;;;;;18.60;41.75;100335.34;3134697;27;114545;-59
2020/12/09 04:08:16;;;;;;;;;;;;;;;18.58;41.73;100332.84;3117248;27;116495;-59
2020/12/09 04:09:47;;;;;;;;;;;;;;;18.59;41.71;100342.06;3129545;27;113758;-59
2020/12/09 04:11:19;;;;;;;;;;;;;;;18.59;41.70;100339.25;3134258;27;115960;-60
2020/12/09 04:12:50;;;;;;;;;;;;;;;18.58;41.74;100344.03;3133638;27;115884;-60
2020/12/09 04:14:21;;;;;;;;;;;;;;;18.58;41.69;100346.00;3135220;27;115356;-61
2020/12/09 04:15:52;;;;;;;;;;;;;;;18.56;41.75;100342.69;3136645;27;116306;-60
2020/12/09 04:17:23;;;;;;;;;;;;;;;18.56;41.64;100345.50;3136166;27;114072;-60
2020/12/09 04:18:54;;;;;;;;;;;;;;;18.55;41.82;100346.63;3135523;27;117584;-61
2020/12/09 04:20:25;;;;;;;;;;;;;;;18.54;41.69;100347.75;3136530;27;114227;-61
2020/12/09 04:21:57;;;;;;;;;;;;;;;18.53;41.65;100346.13;3136715;27;115540;-61
2020/12/09 04:23:28;;;;;;;;;;;;;;;18.51;41.63;100343.59;3132422;27;114485;-61
2020/12/09 04:24:59;;;;;;;;;;;;;;;18.50;41.60;100347.53;3136624;27;115204;-61
2020/12/09 04:26:30;;;;;;;;;;;;;;;18.48;41.65;100344.22;3136313;27;116529;-61
2020/12/09 04:28:01;;;;;;;;;;;;;;;18.49;41.52;100345.84;3139396;27;115445;-61
2020/12/09 04:29:33;;;;;;;;;;;;;;;18.47;41.72;100345.34;3136547;27;116144;-61
2020/12/09 04:31:04;;;;;;;;;;;;;;;18.46;41.75;100348.44;3136571;27;115936;-60
2020/12/09 04:32:35;;;;;;;;;;;;;;;18.45;41.82;100346.78;3135342;27;115783;-60
2020/12/09 04:34:06;;;;;;;;;;;;;;;18.43;41.67;100343.47;3135825;27;115919;-59
2020/12/09 04:35:38;;;;;;;;;;;;;;;18.43;41.80;100347.13;3137598;27;114899;-55
2020/12/09 04:37:10;;;;;;;;;;;;;;;18.44;41.75;100351.53;3135915;27;114573;-55
2020/12/09 04:38:41;;;;;;;;;;;;;;;18.42;41.81;100344.63;3122148;27;114766;-55
2020/12/09 04:40:12;;;;;;;;;;;;;;;18.38;41.72;100350.00;3132466;27;114647;-55
2020/12/09 04:41:44;;;;;;;;;;;;;;;18.38;41.85;100340.78;3135637;27;114814;-55
2020/12/09 04:43:16;;;;;;;;;;;;;;;18.39;41.88;100348.88;3120878;27;114805;-56
2020/12/09 04:44:48;;;;;;;;;;;;;;;18.36;42.00;100343.88;3131769;27;115950;-54
2020/12/09 04:46:19;;;;;;;;;;;;;;;18.36;41.75;100346.66;3116588;27;116180;-54
2020/12/09 04:48:03;;;;;;;;;;;;;;;18.36;41.92;100343.03;3130655;27;115556;-54
2020/12/09 04:49:41;;;;;;;;;;;;;;;18.35;42.02;100352.59;3135900;27;114822;-54
2020/12/09 04:51:28;;;;;;;;;;;;;;;18.32;42.12;100345.63;3125918;27;115212;-54
2020/12/09 04:53:05;;;;;;;;;;;;;;;18.33;42.05;100349.25;3111759;27;115377;-54
2020/12/09 04:54:36;;;;;;;;;;;;;;;18.32;41.92;100351.22;3132418;27;113850;-55
2020/12/09 04:56:08;;;;;;;;;;;;;;;18.31;42.06;100349.56;3135748;27;114316;-54
2020/12/09 04:57:43;;;;;;;;;;;;;;;18.30;42.15;100350.72;3135660;27;114208;-54
2020/12/09 04:59:16;;;;;;;;;;;;;;;18.29;42.01;100343.47;3123314;27;114113;-54
2020/12/09 05:01:02;;;;;;;;;;;;;;;18.28;42.09;100349.34;3135697;27;114396;-55
2020/12/09 05:02:44;;;;;;;;;;;;;;;18.28;42.00;100352.16;3135030;27;114200;-55
2020/12/09 05:04:24;;;;;;;;;;;;;;;18.26;42.07;100343.25;3133717;27;114369;-54
2020/12/09 05:05:55;;;;;;;;;;;;;;;18.25;42.10;100348.00;3129191;27;113787;-54
2020/12/09 05:07:31;;;;;;;;;;;;;;;18.23;42.25;100351.09;3131658;27;114569;-54
2020/12/09 05:09:02;;;;;;;;;;;;;;;18.25;42.29;100350.81;3122046;27;113949;-55
2020/12/09 05:10:35;;;;;;;;;;;;;;;18.22;42.15;100352.25;3131488;27;114307;-59
2020/12/09 05:12:07;;;;;;;;;;;;;;;18.21;42.34;100349.78;3135539;27;114438;-59
2020/12/09 05:13:41;;;;;;;;;;;;;;;18.21;42.36;100358.16;3138647;27;113879;-60
2020/12/09 05:15:16;;;;;;;;;;;;;;;18.19;42.28;100346.44;3136108;27;115246;-60
2020/12/09 05:16:57;;;;;;;;;;;;;;;18.18;42.35;100347.56;3136598;27;115191;-59
2020/12/09 05:18:38;;;;;;;;;;;;;;;18.17;42.29;100351.50;3133899;27;114444;-59
2020/12/09 05:20:10;;;;;;;;;;;;;;;18.16;42.35;100355.44;3136710;27;115055;-59
2020/12/09 05:21:45;;;;;;;;;;;;;;;18.16;42.50;100356.28;3135886;27;114737;-60
2020/12/09 05:23:20;;;;;;;;;;;;;;;18.15;42.61;100363.00;3132575;27;115336;-60
2020/12/09 05:24:51;;;;;;;;;;;;;;;18.16;42.67;100359.09;3136218;27;115331;-60
2020/12/09 05:26:23;;;;;;;;;;;;;;;18.14;42.71;100364.13;3135287;27;114851;-54
2020/12/09 05:27:54;;;;;;;;;;;;;;;18.15;42.76;100364.97;3135155;27;114197;-54
2020/12/09 05:29:25;;;;;;;;;;;;;;;18.14;42.95;100368.91;3135951;27;115045;-54
2020/12/09 05:30:57;;;;;;;;;;;;;;;18.14;42.98;100366.94;3122344;27;114216;-54
2020/12/09 05:32:29;;;;;;;;;;;;;;;18.13;42.86;100370.03;3129917;27;115859;-54
2020/12/09 05:34:00;;;;;;;;;;;;;;;18.11;43.05;100369.50;3135539;27;115232;-54
2020/12/09 05:35:31;;;;;;;;;;;;;;;18.10;43.08;100371.47;3126355;27;115153;-55
2020/12/09 05:37:06;;;;;;;;;;;;;;;18.10;43.03;100374.28;3131557;27;114602;-54
2020/12/09 05:38:37;;;;;;;;;;;;;;;18.08;42.94;100373.72;3121136;27;115741;-54
2020/12/09 05:40:08;;;;;;;;;;;;;;;18.07;43.28;100371.28;3135474;27;114694;-54
2020/12/09 05:41:39;;;;;;;;;;;;;;;18.06;43.12;100381.63;3135840;27;115754;-54
2020/12/09 05:43:11;;;;;;;;;;;;;;;18.05;43.23;100379.13;3133643;27;114669;-55
2020/12/09 05:44:43;;;;;;;;;;;;;;;18.06;43.11;100377.97;3134497;27;114992;-54
2020/12/09 05:46:14;;;;;;;;;;;;;;;18.05;43.17;100387.50;3135275;27;114683;-55
2020/12/09 05:47:45;;;;;;;;;;;;;;;18.01;43.23;100384.50;3120764;27;114720;-54
2020/12/09 05:49:20;;;;;;;;;;;;;;;18.02;43.25;100388.97;3131184;27;114831;-55
2020/12/09 05:50:56;;;;;;;;;;;;;;;18.01;43.32;100389.25;3135237;27;115036;-55
2020/12/09 05:52:27;;;;;;;;;;;;;;;17.99;43.38;100386.75;3115103;27;115795;-54
2020/12/09 05:53:59;;;;;;;;;;;;;;;17.98;43.35;100390.69;3121587;27;115350;-54
2020/12/09 05:55:33;;;;;;;;;;;;;;;17.99;43.18;100394.34;3135738;27;116569;-56
2020/12/09 05:57:05;;;;;;;;;;;;;;;17.99;43.40;100391.53;3124728;27;114646;-55
2020/12/09 05:58:40;;;;;;;;;;;;;;;17.98;43.24;100385.13;3130968;27;113724;-55
2020/12/09 06:00:13;;;;;;;;;;;;;;;17.96;43.37;100390.16;3135574;27;114177;-55
2020/12/09 06:01:44;;;;;;;;;;;;;;;17.96;43.34;100394.91;3135489;27;114432;-54
2020/12/09 06:03:18;;;;;;;;;;;;;;;17.95;43.31;100391.28;3133946;27;114962;-55
2020/12/09 06:04:49;;;;;;;;;;;;;;;17.95;43.39;100394.09;3135259;27;114129;-55
2020/12/09 06:06:26;;;;;;;;;;;;;;;17.95;43.37;100394.09;3136204;27;113944;-54
2020/12/09 06:07:59;;;;;;;;;;;;;;;17.95;43.30;100393.25;3133085;27;114205;-54
2020/12/09 06:09:30;;;;;;;;;;;;;;;17.92;43.45;100394.72;3134866;27;114475;-54
2020/12/09 06:11:01;;;;;;;;;;;;;;;17.93;43.50;100401.13;3135465;27;113780;-54
2020/12/09 06:12:47;;;;;;;;;;;;;;;17.92;43.49;100393.88;3133645;27;114214;-54
2020/12/09 06:14:18;;;;;;;;;;;;;;;17.91;43.62;100395.00;3135358;27;113993;-54
2020/12/09 06:15:50;;;;;;;;;;;;;;;17.91;43.62;100401.44;3135059;27;114169;-55
2020/12/09 06:17:21;;;;;;;;;;;;;;;17.89;43.55;100389.75;3134786;27;113896;-55
2020/12/09 06:18:53;;;;;;;;;;;;;;;17.89;43.62;100394.50;3133947;27;113820;-54
2020/12/09 06:20:26;;;;;;;;;;;;;;;17.89;43.58;100394.50;3138594;27;113943;-54
2020/12/09 06:21:57;;;;;;;;;;;;;;;17.87;43.66;100391.16;3135472;27;115263;-59
2020/12/09 06:23:29;;;;;;;;;;;;;;;17.87;43.60;100400.38;3131882;27;114785;-55
2020/12/09 06:25:04;;;;;;;;;;;;;;;17.85;43.54;100397.06;3134650;27;114037;-55
2020/12/09 06:26:35;;;;;;;;;;;;;;;17.84;43.64;100392.59;3135510;27;115290;-55
2020/12/09 06:28:14;;;;;;;;;;;;;;;17.84;43.80;100401.00;3134020;27;115025;-54
2020/12/09 06:29:45;;;;;;;;;;;;;;;17.84;43.76;100405.75;3135657;27;115068;-55
2020/12/09 06:31:17;;;;;;;;;;;;;;;17.84;43.61;100412.16;3122028;27;115417;-54
2020/12/09 06:32:48;;;;;;;;;;;;;;;17.83;43.54;100406.88;3129556;27;114294;-54
2020/12/09 06:34:19;;;;;;;;;;;;;;;17.82;43.55;100406.03;3134509;27;114930;-55
2020/12/09 06:36:07;;;;;;;;;;;;;;;17.81;43.62;100407.16;3134924;27;115118;-54
2020/12/09 06:37:39;;;;;;;;;;;;;;;17.81;43.55;100406.38;3132300;27;115107;-54
2020/12/09 06:39:11;;;;;;;;;;;;;;;17.79;43.58;100409.44;3134459;27;115220;-55
2020/12/09 06:40:55;;;;;;;;;;;;;;;17.80;43.57;100418.66;3135393;27;115305;-55
2020/12/09 06:42:26;;;;;;;;;;;;;;;17.77;43.66;100408.91;3138139;27;115346;-54
2020/12/09 06:44:04;;;;;;;;;;;;;;;17.76;43.62;100421.25;3134119;27;115374;-56
2020/12/09 06:45:41;;;;;;;;;;;;;;;17.76;43.57;100421.25;3134583;27;114813;-55
2020/12/09 06:47:12;;;;;;;;;;;;;;;17.77;43.63;100422.88;3133954;27;115420;-56
2020/12/09 06:48:46;;;;;;;;;;;;;;;17.75;43.59;100423.19;3133030;27;114649;-56
2020/12/09 06:50:28;;;;;;;;;;;;;;;17.74;43.56;100435.50;3135055;27;115670;-55
2020/12/09 06:51:59;;;;;;;;;;;;;;;17.74;43.75;100426.28;3132803;27;116550;-55
2020/12/09 06:53:31;;;;;;;;;;;;;;;17.71;43.66;100429.69;3131081;27;114662;-55
2020/12/09 06:55:03;;;;;;;;;;;;;;;17.71;43.55;100427.75;3134478;27;115758;-55
2020/12/09 06:56:35;;;;;;;;;;;;;;;17.70;43.74;100430.81;3134606;27;114722;-55
2020/12/09 06:58:21;;;;;;;;;;;;;;;17.70;43.69;100431.66;3133256;27;114656;-55
2020/12/09 07:00:12;;;;;;;;;;;;;;;17.69;43.60;100431.94;3132606;27;116753;-55
2020/12/09 07:02:02;;;;;;;;;;;;;;;17.66;43.51;100429.78;3108463;27;114777;-55
2020/12/09 07:03:37;;;;;;;;;;;;;;;17.68;43.54;100427.50;3129064;27;114704;-55
2020/12/09 07:05:10;;;;;;;;;;;;;;;17.66;43.50;100426.97;3138337;27;114552;-59
2020/12/09 07:06:41;;;;;;;;;;;;;;;17.66;43.58;100429.78;3134504;27;113937;-55
2020/12/09 07:08:12;;;;;;;;;;;;;;;17.66;43.45;100432.56;3131395;27;114366;-55
2020/12/09 07:09:55;;;;;;;;;;;;;;;17.65;43.41;100426.13;3135027;27;114088;-55
2020/12/09 07:11:51;;;;;;;;;;;;;;;17.64;43.44;100440.41;3123634;27;113855;-55
2020/12/09 07:13:22;;;;;;;;;;;;;;;17.63;43.51;100439.56;3123532;27;116827;-54
2020/12/09 07:14:54;;;;;;;;;;;;;;;17.62;43.53;100445.47;3135672;27;113964;-55
2020/12/09 07:16:28;;;;;;;;;;;;;;;17.62;43.44;100445.47;3124279;27;114531;-53
2020/12/09 07:18:00;;;;;;;;;;;;;;;17.62;43.52;100442.69;3133575;27;114251;-56
2020/12/09 07:19:32;;;;;;;;;;;;;;;17.60;43.60;100440.19;3134659;27;114686;-54
2020/12/09 07:21:05;;;;;;;;;;;;;;;17.60;43.54;100451.34;3134885;27;113880;-54
2020/12/09 07:22:37;;;;;;;;;;;;;;;17.59;43.67;100454.44;3132011;27;114331;-54
2020/12/09 07:24:12;;;;;;;;;;;;;;;17.57;43.54;100448.31;3118847;27;114758;-54
2020/12/09 07:25:44;;;;;;;;;;;;;;;17.57;43.62;100459.47;3130311;27;114231;-55
2020/12/09 07:27:16;;;;;;;;;;;;;;;17.56;43.66;100455.00;3138325;27;114154;-55
2020/12/09 07:28:50;;;;;;;;;;;;;;;17.57;43.64;100448.31;3133614;27;114710;-54
2020/12/09 07:30:22;;;;;;;;;;;;;;;17.55;43.64;100450.56;3134522;27;114317;-54
2020/12/09 07:31:59;;;;;;;;;;;;;;;17.54;43.73;100446.94;3135399;27;115207;-55
2020/12/09 07:33:30;;;;;;;;;;;;;;;17.55;43.78;100451.38;3120891;27;115171;-55
2020/12/09 07:35:02;;;;;;;;;;;;;;;17.53;43.92;100448.09;3133805;27;117407;-55
2020/12/09 07:36:52;;;;;;;;;;;;;;;17.52;44.07;100451.16;3134466;27;114046;-56
2020/12/09 07:38:23;;;;;;;;;;;;;;;17.53;43.95;100450.03;3128627;27;114847;-55
2020/12/09 07:39:56;;;;;;;;;;;;;;;17.51;44.04;100450.34;3134804;27;114052;-56
2020/12/09 07:41:27;;;;;;;;;;;;;;;17.50;43.99;100443.06;3134048;27;115319;-55
2020/12/09 07:42:59;;;;;;;;;;;;;;;17.51;44.03;100446.69;3134227;27;115076;-56
2020/12/09 07:44:30;;;;;;;;;;;;;;;17.48;44.05;100450.09;3119435;27;115328;-56
2020/12/09 07:46:02;;;;;;;;;;;;;;;17.49;44.12;100452.59;3130149;27;114585;-56
2020/12/09 07:47:33;;;;;;;;;;;;;;;17.49;44.17;100447.00;3133997;27;117500;-56
2020/12/09 07:49:10;;;;;;;;;;;;;;;17.50;44.09;100450.63;3139175;27;114516;-55
2020/12/09 07:50:47;;;;;;;;;;;;;;;17.49;44.08;100449.78;3123528;27;114829;-56
2020/12/09 07:52:20;;;;;;;;;;;;;;;17.49;44.05;100458.16;3131676;27;114759;-56